createdAt,value
2023-03-31T00:00:24.751Z,63.94
2023-03-31T00:02:51.705Z,64.53
2023-03-31T00:05:18.804Z,64.89
2023-03-31T00:07:45.461Z,64.49
2023-03-31T00:10:18.264Z,64.02
2023-03-31T00:12:45.551Z,63.89
2023-03-31T00:15:12.305Z,64.11
2023-03-31T00:17:38.927Z,64.82
2023-03-31T00:20:05.851Z,64.57
2023-03-31T00:22:32.410Z,64.02
2023-03-31T00:24:58.975Z,63.82
2023-03-31T00:27:25.618Z,64.45
2023-03-31T00:29:52.217Z,64.13
2023-03-31T00:32:18.766Z,63.68
2023-03-31T00:34:45.360Z,63.74
2023-03-31T00:37:11.940Z,63.74
2023-03-31T00:39:38.528Z,63.87
2023-03-31T00:42:05.433Z,63.76
2023-03-31T00:44:32.042Z,63.71
2023-03-31T00:46:58.639Z,63.28
2023-03-31T00:49:25.210Z,64.00
2023-03-31T00:51:51.798Z,64.13
2023-03-31T00:54:18.472Z,63.83
2023-03-31T00:56:45.078Z,63.82
2023-03-31T00:59:11.764Z,63.66
2023-03-31T01:01:38.403Z,63.49
2023-03-31T01:04:05.077Z,63.63
2023-03-31T01:06:31.720Z,63.79
2023-03-31T01:08:58.312Z,63.28
2023-03-31T01:11:24.915Z,63.93
2023-03-31T01:13:51.498Z,63.74
2023-03-31T01:16:18.129Z,63.19
2023-03-31T01:18:45.380Z,63.37
2023-03-31T01:21:12.005Z,62.83
2023-03-31T01:23:38.550Z,62.91
2023-03-31T01:26:05.249Z,62.98
2023-03-31T01:28:31.927Z,62.69
2023-03-31T01:30:58.615Z,63.18
2023-03-31T01:33:25.241Z,62.65
2023-03-31T01:35:51.910Z,63.06
2023-03-31T01:38:18.508Z,62.58
2023-03-31T01:40:45.230Z,62.87
2023-03-31T01:43:11.828Z,63.58
2023-03-31T01:45:38.422Z,63.27
2023-03-31T01:48:05.026Z,63.81
2023-03-31T01:50:31.671Z,64.26
2023-03-31T01:52:58.230Z,63.76
2023-03-31T01:55:25.116Z,64.25
2023-03-31T01:57:51.720Z,65.44
2023-03-31T02:00:18.328Z,64.97
2023-03-31T02:02:44.945Z,64.03
2023-03-31T02:05:11.597Z,63.76
2023-03-31T02:07:38.230Z,63.29
2023-03-31T02:10:04.858Z,64.90
2023-03-31T02:12:31.473Z,64.99
2023-03-31T02:14:58.041Z,63.95
2023-03-31T02:17:24.692Z,64.35
2023-03-31T02:19:51.362Z,65.44
2023-03-31T02:22:17.915Z,65.77
2023-03-31T02:24:45.477Z,64.73
2023-03-31T02:27:12.043Z,63.76
2023-03-31T02:29:39.051Z,64.21
2023-03-31T02:32:05.606Z,63.77
2023-03-31T02:34:32.267Z,64.27
2023-03-31T02:36:58.855Z,64.01
2023-03-31T02:39:25.458Z,64.29
2023-03-31T02:41:52.066Z,64.75
2023-03-31T02:44:18.787Z,64.83
2023-03-31T02:46:45.457Z,63.83
2023-03-31T02:49:12.043Z,65.14
2023-03-31T02:51:38.605Z,65.19
2023-03-31T02:54:05.178Z,64.78
2023-03-31T02:56:31.858Z,63.67
2023-03-31T02:58:58.466Z,64.54
2023-03-31T03:01:25.114Z,65.49
2023-03-31T03:03:52.434Z,64.37
2023-03-31T03:06:19.015Z,64.85
2023-03-31T03:08:45.582Z,65.02
2023-03-31T03:11:12.167Z,65.82
2023-03-31T03:13:38.721Z,65.69
2023-03-31T03:16:05.522Z,64.51
2023-03-31T03:18:32.333Z,64.36
2023-03-31T03:20:58.902Z,64.49
2023-03-31T03:23:25.789Z,63.47
2023-03-31T03:25:52.386Z,63.52
2023-03-31T03:28:19.059Z,64.44
2023-03-31T03:30:45.717Z,65.63
2023-03-31T03:33:13.530Z,65.40
2023-03-31T03:35:40.908Z,64.57
2023-03-31T03:38:07.503Z,64.51
2023-03-31T03:40:34.203Z,64.94
2023-03-31T03:43:00.764Z,66.16
2023-03-31T03:45:27.321Z,66.31
2023-03-31T03:47:53.989Z,65.31
2023-03-31T03:50:20.589Z,65.16
2023-03-31T03:52:47.225Z,64.85
2023-03-31T03:55:13.942Z,64.62
2023-03-31T03:57:40.560Z,64.46
2023-03-31T04:00:07.120Z,63.98
2023-03-31T04:02:33.756Z,63.69
2023-03-31T04:05:00.481Z,63.13
2023-03-31T04:07:27.124Z,63.68
2023-03-31T04:09:53.699Z,63.30
2023-03-31T04:12:20.268Z,64.10
2023-03-31T04:14:46.847Z,64.17
2023-03-31T04:17:13.415Z,64.87
2023-03-31T04:19:40.298Z,65.37
2023-03-31T04:22:06.864Z,65.90
2023-03-31T04:24:33.607Z,65.32
2023-03-31T04:27:00.243Z,65.74
2023-03-31T04:29:26.827Z,65.04
2023-03-31T04:31:53.434Z,64.99
2023-03-31T04:34:20.003Z,64.68
2023-03-31T04:36:46.708Z,64.93
2023-03-31T04:39:13.254Z,66.00
2023-03-31T04:41:39.871Z,66.14
2023-03-31T04:44:06.757Z,65.11
2023-03-31T04:46:33.520Z,65.41
2023-03-31T04:49:00.156Z,65.99
2023-03-31T04:51:26.743Z,65.70
2023-03-31T04:53:53.323Z,66.54
2023-03-31T04:56:19.874Z,66.58
2023-03-31T04:58:46.466Z,66.02
2023-03-31T05:01:13.109Z,65.20
2023-03-31T05:03:39.799Z,64.87
2023-03-31T05:06:06.496Z,64.73
2023-03-31T05:08:33.185Z,64.06
2023-03-31T05:10:59.866Z,64.08
2023-03-31T05:13:26.481Z,64.37
2023-03-31T05:15:53.036Z,64.72
2023-03-31T05:18:19.611Z,65.16
2023-03-31T05:20:46.543Z,65.22
2023-03-31T05:23:13.169Z,65.65
2023-03-31T05:25:39.744Z,65.34
2023-03-31T05:28:06.341Z,66.33
2023-03-31T05:30:32.911Z,66.02
2023-03-31T05:32:59.750Z,66.54
2023-03-31T05:35:26.416Z,66.68
2023-03-31T05:37:53.077Z,66.54
2023-03-31T05:40:19.721Z,66.61
2023-03-31T05:42:46.587Z,66.57
2023-03-31T05:45:13.167Z,66.68
2023-03-31T05:47:39.786Z,67.40
2023-03-31T05:50:06.510Z,68.10
2023-03-31T05:52:33.073Z,67.22
2023-03-31T05:54:59.689Z,66.88
2023-03-31T05:57:26.335Z,66.86
2023-03-31T05:59:52.985Z,66.40
2023-03-31T06:02:19.847Z,66.18
2023-03-31T06:04:46.703Z,65.78
2023-03-31T06:07:13.843Z,65.65
2023-03-31T06:09:40.538Z,66.42
2023-03-31T06:12:07.117Z,66.62
2023-03-31T06:14:33.717Z,66.53
2023-03-31T06:17:00.310Z,66.04
2023-03-31T06:19:26.868Z,65.60
2023-03-31T06:21:53.413Z,65.29
2023-03-31T06:24:19.990Z,65.96
2023-03-31T06:26:46.576Z,66.59
2023-03-31T06:29:13.163Z,65.48
2023-03-31T06:31:39.783Z,66.02
2023-03-31T06:34:06.540Z,65.33
2023-03-31T06:36:33.097Z,66.66
2023-03-31T06:38:59.760Z,66.48
2023-03-31T06:41:26.360Z,67.02
2023-03-31T06:43:53.048Z,68.09
2023-03-31T06:46:19.658Z,67.35
2023-03-31T06:48:46.372Z,66.58
2023-03-31T06:51:13.181Z,65.52
2023-03-31T06:53:39.909Z,64.63
2023-03-31T06:56:06.899Z,64.94
2023-03-31T06:58:33.643Z,64.37
2023-03-31T07:01:00.376Z,63.36
2023-03-31T07:03:27.313Z,62.93
2023-03-31T07:05:53.932Z,62.20
2023-03-31T07:08:20.501Z,61.31
2023-03-31T07:10:47.092Z,61.54
2023-03-31T07:13:13.681Z,60.37
2023-03-31T07:15:40.238Z,59.32
2023-03-31T07:18:06.915Z,61.86
2023-03-31T07:20:33.516Z,59.86
2023-03-31T07:23:00.116Z,59.09
2023-03-31T07:25:26.698Z,58.36
2023-03-31T07:27:53.255Z,57.61
2023-03-31T07:30:19.812Z,57.49
2023-03-31T07:32:46.467Z,56.82
2023-03-31T07:35:14.937Z,56.59
2023-03-31T07:37:41.507Z,57.56
2023-03-31T07:40:08.071Z,58.07
2023-03-31T07:42:34.649Z,59.23
2023-03-31T07:45:01.269Z,57.10
2023-03-31T07:47:27.896Z,56.55
2023-03-31T07:49:54.573Z,54.53
2023-03-31T07:52:21.124Z,55.51
2023-03-31T07:54:47.749Z,55.25
2023-03-31T07:57:14.431Z,55.08
2023-03-31T07:59:41.010Z,54.50
2023-03-31T08:02:07.584Z,53.55
2023-03-31T08:04:34.176Z,52.01
2023-03-31T08:07:01.605Z,51.68
2023-03-31T08:09:28.313Z,52.38
2023-03-31T08:11:54.886Z,52.91
2023-03-31T08:14:30.334Z,51.80
2023-03-31T08:17:04.893Z,51.89
2023-03-31T08:19:31.753Z,52.18
2023-03-31T08:21:58.291Z,50.86
2023-03-31T08:24:24.858Z,51.78
2023-03-31T08:26:51.440Z,53.05
2023-03-31T08:29:18.043Z,50.72
2023-03-31T08:31:44.667Z,51.63
2023-03-31T08:34:11.291Z,50.02
2023-03-31T08:36:37.883Z,49.68
2023-03-31T08:39:04.442Z,50.14
2023-03-31T08:41:31.023Z,49.43
2023-03-31T08:43:57.588Z,50.67
2023-03-31T08:46:24.201Z,48.73
2023-03-31T08:48:50.811Z,47.71
2023-03-31T08:51:17.390Z,49.01
2023-03-31T08:53:43.963Z,48.59
2023-03-31T08:56:10.532Z,47.62
2023-03-31T08:58:37.135Z,47.56
2023-03-31T09:01:03.839Z,48.10
2023-03-31T09:03:30.536Z,48.11
2023-03-31T09:06:00.549Z,46.83
2023-03-31T09:08:27.668Z,46.34
2023-03-31T09:10:54.294Z,49.51
2023-03-31T09:13:20.939Z,49.70
2023-03-31T09:15:47.476Z,48.54
2023-03-31T09:18:14.223Z,47.28
2023-03-31T09:20:40.778Z,46.46
2023-03-31T09:23:07.361Z,45.54
2023-03-31T09:25:33.951Z,44.97
2023-03-31T09:28:00.514Z,45.59
2023-03-31T09:30:27.081Z,44.80
2023-03-31T09:32:53.674Z,44.64
2023-03-31T09:35:20.244Z,44.23
2023-03-31T09:37:46.890Z,45.54
2023-03-31T09:40:13.566Z,43.77
2023-03-31T09:42:40.165Z,44.48
2023-03-31T09:45:06.752Z,45.17
2023-03-31T09:47:33.411Z,44.54
2023-03-31T09:50:00.290Z,45.48
2023-03-31T09:52:27.833Z,44.49
2023-03-31T09:54:54.412Z,42.93
2023-03-31T09:57:21.123Z,41.77
2023-03-31T09:59:47.874Z,42.32
2023-03-31T10:02:14.430Z,42.30
2023-03-31T10:04:41.077Z,43.26
2023-03-31T10:07:07.820Z,42.04
2023-03-31T10:09:34.462Z,43.02
2023-03-31T10:12:01.060Z,42.30
2023-03-31T10:14:27.652Z,43.97
2023-03-31T10:16:54.233Z,43.99
2023-03-31T10:19:20.813Z,44.46
2023-03-31T10:21:47.390Z,43.84
2023-03-31T10:24:13.957Z,42.15
2023-03-31T10:26:40.519Z,42.88
2023-03-31T10:29:07.097Z,44.79
2023-03-31T10:31:33.677Z,45.93
2023-03-31T10:34:00.371Z,45.52
2023-03-31T10:36:26.937Z,45.02
2023-03-31T10:38:53.487Z,46.06
2023-03-31T10:41:20.095Z,46.51
2023-03-31T10:43:46.745Z,44.56
2023-03-31T10:46:13.385Z,42.88
2023-03-31T10:48:39.933Z,42.16
2023-03-31T10:51:06.640Z,41.28
2023-03-31T10:53:33.400Z,41.92
2023-03-31T10:55:59.972Z,41.38
2023-03-31T10:58:26.604Z,41.25
2023-03-31T11:00:53.202Z,40.96
2023-03-31T11:03:20.404Z,41.19
2023-03-31T11:05:47.073Z,41.36
2023-03-31T11:08:13.631Z,40.43
2023-03-31T11:10:40.277Z,40.58
2023-03-31T11:13:06.853Z,39.75
2023-03-31T11:15:33.563Z,39.59
2023-03-31T11:18:00.705Z,40.21
2023-03-31T11:20:28.583Z,38.82
2023-03-31T11:22:56.944Z,39.16
2023-03-31T11:25:23.498Z,39.22
2023-03-31T11:27:50.142Z,38.05
2023-03-31T11:30:16.833Z,38.90
2023-03-31T11:32:43.400Z,39.37
2023-03-31T11:35:09.995Z,39.96
2023-03-31T11:37:36.660Z,38.15
2023-03-31T11:40:03.254Z,38.61
2023-03-31T11:42:29.830Z,38.08
2023-03-31T11:44:56.401Z,37.98
2023-03-31T11:47:22.960Z,38.67
2023-03-31T11:49:49.595Z,38.82
2023-03-31T11:52:16.145Z,38.50
2023-03-31T11:54:42.719Z,38.30
2023-03-31T11:57:09.419Z,37.45
2023-03-31T11:59:36.027Z,37.92
2023-03-31T12:02:02.657Z,36.73
2023-03-31T12:04:29.269Z,35.73
2023-03-31T12:06:55.908Z,37.00
2023-03-31T12:09:22.458Z,35.36
2023-03-31T12:11:49.120Z,36.54
2023-03-31T12:14:15.864Z,36.23
2023-03-31T12:16:42.661Z,36.00
2023-03-31T12:19:09.274Z,37.53
2023-03-31T12:21:35.902Z,35.43
2023-03-31T12:24:02.479Z,35.34
2023-03-31T12:26:29.160Z,34.93
2023-03-31T12:28:55.757Z,34.22
2023-03-31T12:31:22.759Z,34.78
2023-03-31T12:33:49.326Z,35.07
2023-03-31T12:36:16.015Z,34.44
2023-03-31T12:38:42.751Z,33.10
2023-03-31T12:41:09.311Z,33.58
2023-03-31T12:43:35.976Z,34.02
2023-03-31T12:46:02.569Z,34.23
2023-03-31T12:48:29.344Z,34.29
2023-03-31T12:50:55.951Z,34.52
2023-03-31T12:53:22.553Z,33.92
2023-03-31T12:55:49.114Z,32.90
2023-03-31T12:58:15.892Z,32.16
2023-03-31T13:00:42.517Z,33.60
2023-03-31T13:03:09.235Z,33.68
2023-03-31T13:05:35.876Z,33.38
2023-03-31T13:08:02.547Z,34.39
2023-03-31T13:10:29.150Z,35.12
2023-03-31T13:12:55.756Z,35.71
2023-03-31T13:15:22.299Z,36.87
2023-03-31T13:17:48.930Z,34.97
2023-03-31T13:20:15.570Z,33.89
2023-03-31T13:22:42.179Z,35.01
2023-03-31T13:25:08.832Z,34.43
2023-03-31T13:27:35.423Z,35.64
2023-03-31T13:30:02.151Z,35.99
2023-03-31T13:32:28.790Z,35.50
2023-03-31T13:34:55.401Z,35.30
2023-03-31T13:37:22.239Z,36.00
2023-03-31T13:39:48.833Z,36.67
2023-03-31T13:42:15.416Z,36.29
2023-03-31T13:44:41.971Z,35.46
2023-03-31T13:47:08.558Z,35.75
2023-03-31T13:49:35.125Z,36.34
2023-03-31T13:52:01.707Z,37.11
2023-03-31T13:54:28.329Z,36.85
2023-03-31T13:56:54.952Z,37.02
2023-03-31T13:59:21.623Z,37.72
2023-03-31T14:01:48.255Z,37.31
2023-03-31T14:04:14.827Z,36.80
2023-03-31T14:06:41.461Z,37.52
2023-03-31T14:09:08.061Z,36.75
2023-03-31T14:11:34.655Z,36.97
2023-03-31T14:14:01.232Z,37.92
2023-03-31T14:16:27.914Z,37.46
2023-03-31T14:18:54.526Z,37.75
2023-03-31T14:21:21.133Z,37.30
2023-03-31T14:23:47.839Z,37.07
2023-03-31T14:26:14.733Z,36.91
2023-03-31T14:28:42.554Z,36.85
2023-03-31T14:31:09.521Z,37.83
2023-03-31T14:33:36.271Z,37.65
2023-03-31T14:36:02.919Z,37.47
2023-03-31T14:38:29.797Z,37.63
2023-03-31T14:40:56.495Z,37.31
2023-03-31T14:43:23.322Z,37.09
2023-03-31T14:45:49.912Z,37.31
2023-03-31T14:48:16.498Z,36.95
2023-03-31T14:50:43.137Z,37.70
2023-03-31T14:53:09.769Z,37.37
2023-03-31T14:58:05.786Z,36.76
2023-03-31T15:00:32.894Z,36.98
2023-03-31T15:02:59.499Z,37.19
2023-03-31T15:05:26.186Z,37.24
2023-03-31T15:07:52.869Z,36.81
2023-03-31T15:10:19.420Z,37.84
2023-03-31T15:12:46.188Z,36.96
2023-03-31T15:15:12.741Z,36.96
2023-03-31T15:17:39.409Z,37.36
2023-03-31T15:20:05.965Z,37.53
2023-03-31T15:22:32.511Z,38.09
2023-03-31T15:24:59.066Z,38.91
2023-03-31T15:27:34.021Z,38.72
2023-03-31T15:30:03.103Z,38.59
2023-03-31T15:32:29.926Z,38.39
2023-03-31T15:35:02.434Z,37.79
2023-03-31T15:37:34.414Z,37.63
2023-03-31T15:40:00.944Z,37.59
2023-03-31T15:42:27.497Z,38.25
2023-03-31T15:44:54.044Z,38.48
2023-03-31T15:47:20.584Z,38.12
2023-03-31T15:49:47.197Z,38.21
2023-03-31T15:52:13.745Z,38.45
2023-03-31T15:54:42.491Z,39.34
2023-03-31T15:57:09.137Z,39.44
2023-03-31T15:59:51.177Z,40.16
2023-03-31T16:02:21.758Z,40.13
2023-03-31T16:04:48.410Z,39.64
2023-03-31T16:07:14.994Z,39.11
2023-03-31T16:09:41.664Z,39.32
2023-03-31T16:12:08.232Z,40.28
2023-03-31T16:14:34.876Z,40.96
2023-03-31T16:17:04.480Z,40.67
2023-03-31T16:19:31.074Z,40.38
2023-03-31T16:21:57.808Z,40.94
2023-03-31T16:24:24.510Z,41.71
2023-03-31T16:26:51.146Z,41.62
2023-03-31T16:29:17.724Z,41.77
2023-03-31T16:31:44.344Z,41.33
2023-03-31T16:34:11.016Z,41.63
2023-03-31T16:36:37.581Z,41.72
2023-03-31T16:39:04.212Z,41.38
2023-03-31T16:41:30.761Z,41.99
2023-03-31T16:43:57.301Z,43.21
2023-03-31T16:46:23.887Z,46.93
2023-03-31T16:48:50.617Z,49.49
2023-03-31T16:51:17.556Z,51.08
2023-03-31T16:53:44.117Z,51.45
2023-03-31T16:56:10.718Z,53.02
2023-03-31T16:58:37.464Z,55.23
2023-03-31T17:01:04.052Z,54.97
2023-03-31T17:03:30.761Z,55.33
2023-03-31T17:05:59.264Z,54.48
2023-03-31T17:08:26.064Z,53.79
2023-03-31T17:10:52.662Z,54.21
2023-03-31T17:13:19.279Z,55.30
2023-03-31T17:15:45.846Z,55.87
2023-03-31T17:18:12.599Z,56.97
2023-03-31T17:20:39.310Z,56.92
2023-03-31T17:23:05.956Z,56.79
2023-03-31T17:25:32.553Z,57.33
2023-03-31T17:27:59.093Z,57.29
2023-03-31T17:30:25.697Z,56.73
2023-03-31T17:32:52.537Z,56.51
2023-03-31T17:35:19.706Z,55.27
2023-03-31T17:37:48.594Z,55.64
2023-03-31T17:40:15.128Z,54.81
2023-03-31T17:42:41.768Z,54.26
2023-03-31T17:45:08.429Z,54.67
2023-03-31T17:47:35.026Z,55.83
2023-03-31T17:50:01.627Z,57.58
2023-03-31T17:52:28.207Z,58.35
2023-03-31T17:54:54.782Z,58.20
2023-03-31T17:57:21.434Z,57.49
2023-03-31T17:59:48.121Z,56.62
2023-03-31T18:02:14.701Z,57.29
2023-03-31T18:04:41.310Z,57.47
2023-03-31T18:07:07.907Z,57.63
2023-03-31T18:09:34.498Z,58.70
2023-03-31T18:12:01.056Z,59.92
2023-03-31T18:14:27.658Z,59.48
2023-03-31T18:16:54.293Z,58.86
2023-03-31T18:19:20.856Z,60.43
2023-03-31T18:21:47.614Z,61.18
2023-03-31T18:24:14.481Z,60.23
2023-03-31T18:26:41.050Z,59.40
2023-03-31T18:29:07.609Z,59.10
2023-03-31T18:31:34.239Z,59.70
2023-03-31T18:34:00.889Z,60.84
2023-03-31T18:36:28.701Z,61.15
2023-03-31T18:38:55.385Z,60.89
2023-03-31T18:41:21.965Z,61.21
2023-03-31T18:43:48.586Z,62.49
2023-03-31T18:46:15.441Z,61.60
2023-03-31T18:48:43.188Z,60.83
2023-03-31T18:51:09.760Z,60.77
2023-03-31T18:53:37.321Z,60.61
2023-03-31T18:56:03.949Z,61.59
2023-03-31T18:58:30.515Z,62.31
2023-03-31T19:00:57.270Z,61.17
2023-03-31T19:03:24.037Z,59.90
2023-03-31T19:05:50.615Z,59.66
2023-03-31T19:08:17.211Z,62.27
2023-03-31T19:10:43.781Z,61.80
2023-03-31T19:13:10.356Z,64.20
2023-03-31T19:15:36.885Z,62.47
2023-03-31T19:18:03.561Z,61.51
2023-03-31T19:20:30.208Z,62.30
2023-03-31T19:22:56.773Z,63.14
2023-03-31T19:25:23.347Z,62.51
2023-03-31T19:27:49.901Z,61.89
2023-03-31T19:30:16.465Z,62.14
2023-03-31T19:32:43.122Z,62.11
2023-03-31T19:35:10.137Z,62.33
2023-03-31T19:37:36.737Z,61.70
2023-03-31T19:40:03.281Z,61.64
2023-03-31T19:42:30.171Z,61.81
2023-03-31T19:44:56.856Z,61.72
2023-03-31T19:47:23.431Z,61.05
2023-03-31T19:49:50.022Z,61.28
2023-03-31T19:52:16.739Z,61.55
2023-03-31T19:54:43.323Z,61.26
2023-03-31T19:57:09.994Z,61.36
2023-03-31T20:02:20.958Z,60.74
2023-03-31T20:04:47.784Z,60.66
2023-03-31T20:07:15.263Z,60.62
2023-03-31T20:09:41.863Z,60.59
2023-03-31T20:12:08.557Z,60.70
2023-03-31T20:14:35.164Z,60.76
2023-03-31T20:17:01.738Z,60.91
2023-03-31T20:19:28.268Z,61.06
2023-03-31T20:21:54.864Z,60.85
2023-03-31T20:24:21.450Z,60.70
2023-03-31T20:26:48.010Z,60.46
2023-03-31T20:29:14.616Z,61.76
2023-03-31T20:31:41.197Z,62.07
2023-03-31T20:34:07.778Z,61.38
2023-03-31T20:36:34.411Z,61.07
2023-03-31T20:39:00.952Z,61.61
2023-03-31T20:41:27.495Z,61.93
2023-03-31T20:43:54.060Z,61.59
2023-03-31T20:46:20.619Z,61.46
2023-03-31T20:48:47.204Z,61.64
2023-03-31T20:51:13.766Z,61.82
2023-03-31T20:53:40.351Z,61.13
2023-03-31T20:56:06.913Z,61.65
2023-03-31T20:58:33.538Z,62.31
2023-03-31T21:01:00.197Z,62.41
2023-03-31T21:03:26.815Z,62.87
2023-03-31T21:05:54.331Z,62.08
2023-03-31T21:08:20.922Z,61.66
2023-03-31T21:10:47.507Z,61.92
2023-03-31T21:13:15.438Z,61.91
2023-03-31T21:15:41.993Z,61.72
2023-03-31T21:18:08.653Z,61.67
2023-03-31T21:20:35.274Z,62.10
2023-03-31T21:23:01.902Z,62.87
2023-03-31T21:25:28.566Z,63.19
2023-03-31T21:27:55.132Z,62.86
2023-03-31T21:30:21.705Z,62.69
2023-03-31T21:32:48.314Z,62.31
2023-03-31T21:35:15.079Z,62.20
2023-03-31T21:37:41.641Z,61.72
2023-03-31T21:40:08.554Z,61.42
2023-03-31T21:42:35.139Z,61.70
2023-03-31T21:45:01.729Z,61.97
2023-03-31T21:47:28.362Z,63.03
2023-03-31T21:49:54.912Z,62.47
2023-03-31T21:52:21.753Z,62.28
2023-03-31T21:54:50.601Z,62.13
2023-03-31T21:57:17.277Z,62.25
2023-03-31T21:59:43.938Z,61.93
2023-03-31T22:02:10.633Z,61.99
2023-03-31T22:04:37.258Z,62.43
2023-03-31T22:07:03.840Z,62.01
2023-03-31T22:09:30.459Z,62.10
2023-03-31T22:11:57.046Z,62.23
2023-03-31T22:14:23.606Z,61.77
2023-03-31T22:16:50.249Z,62.42
2023-03-31T22:19:17.186Z,62.23
2023-03-31T22:21:44.031Z,62.34
2023-03-31T22:24:10.667Z,62.20
2023-03-31T22:26:37.234Z,62.57
2023-03-31T22:29:03.821Z,62.16
2023-03-31T22:31:30.451Z,62.42
2023-03-31T22:33:57.107Z,62.33
2023-03-31T22:36:23.752Z,62.64
2023-03-31T22:38:50.358Z,62.38
2023-03-31T22:41:16.950Z,61.78
2023-03-31T22:43:45.871Z,62.73
2023-03-31T22:46:12.924Z,62.66
2023-03-31T22:48:39.545Z,62.70
2023-03-31T22:51:06.117Z,63.30
2023-03-31T22:53:32.689Z,63.64
2023-03-31T22:55:59.364Z,63.62
2023-03-31T22:58:25.909Z,63.66
2023-03-31T23:00:52.528Z,63.68
2023-03-31T23:03:19.197Z,63.87
2023-03-31T23:05:45.832Z,63.71
2023-03-31T23:08:12.400Z,63.36
2023-03-31T23:10:38.970Z,63.06
2023-03-31T23:13:05.536Z,63.43
2023-03-31T23:15:32.404Z,62.91
2023-03-31T23:17:59.597Z,63.15
2023-03-31T23:20:26.209Z,63.19
2023-03-31T23:22:52.763Z,62.96
2023-03-31T23:25:19.342Z,62.43
2023-03-31T23:27:45.942Z,63.09
2023-03-31T23:30:12.591Z,62.94
2023-03-31T23:32:39.189Z,63.32
2023-03-31T23:35:05.780Z,62.84
2023-03-31T23:37:32.431Z,62.85
2023-03-31T23:39:59.141Z,62.64
2023-03-31T23:42:25.891Z,64.01
2023-03-31T23:44:52.441Z,64.44
2023-03-31T23:47:19.004Z,64.25
2023-03-31T23:49:45.626Z,63.53
2023-03-31T23:52:12.193Z,63.90
2023-03-31T23:54:38.748Z,64.01
2023-03-31T23:57:05.453Z,64.14
2023-03-31T23:59:32.073Z,64.13
